sim
Sign-in with your pilot id or email,
or register
Callsign
Passwort

Schedule Details

Flight Number: DLH1766
Departure: Munich Airport (EDDM) at 07:35
Arrival: Corfu International Airport (LGKR) at 09:30
Route: Lufthansa Passenger Schedule. Enter filed route here before submitting Pirep.

Weather Information
Getting current METAR information for EDDM 221350Z VRB03KT 9999 FEW040 24/15 Q1012 NOSIG
Getting current METAR information for LGKR 221350Z 16010KT 9999 FEW025 28/21 Q1016 NOSIG

Schedule Frequency

Route Map